Time;durP1;ratioP1;P1;durP2;ratioP2;P2;SDS_P1;SDS_P2;PMS_P1;PMS_P2;Temp;Humidity;BMP_temperature;BMP_pressure;BME280_temperature;BME280_humidity;BME280_pressure;Samples;Min_cycle;Max_cycle;Signal;HPM_P1;HPM_P2
2023/09/15 00:02:56;;;;;;;;;;;16.20;99.90;;;;;;21148328;28;19916;-76
2023/09/15 00:12:58;;;;;;;;;;;16.00;99.90;;;;;;21136719;28;19922;-76
2023/09/15 00:22:58;;;;;;;;;;;16.00;99.90;;;;;;21143250;28;19951;-76
2023/09/15 00:32:59;;;;;;;;;;;15.80;99.90;;;;;;21139231;28;20396;-76
2023/09/15 00:43:00;;;;;;;;;;;15.60;99.90;;;;;;21142397;28;19915;-76
2023/09/15 00:53:08;;;;;;;;;;;15.60;99.90;;;;;;21141177;28;20002;-76
2023/09/15 01:03:09;;;;;;;;;;;15.40;99.90;;;;;;21149313;28;19955;-76
2023/09/15 01:13:10;;;;;;;;;;;15.30;99.90;;;;;;21139628;28;20011;-76
2023/09/15 01:23:11;;;;;;;;;;;15.20;99.90;;;;;;21118748;28;19947;-76
2023/09/15 01:33:13;;;;;;;;;;;15.10;99.90;;;;;;21117248;28;20023;-76
2023/09/15 01:43:14;;;;;;;;;;;15.10;99.90;;;;;;21142372;28;19919;-76
2023/09/15 01:53:14;;;;;;;;;;;14.80;99.90;;;;;;21124909;28;19916;-76
2023/09/15 02:03:16;;;;;;;;;;;14.90;99.90;;;;;;21133430;27;20011;-77
2023/09/15 02:13:17;;;;;;;;;;;15.00;99.90;;;;;;21116086;28;19915;-76
2023/09/15 02:23:19;;;;;;;;;;;14.70;99.90;;;;;;21137179;28;20369;-76
2023/09/15 02:33:20;;;;;;;;;;;14.70;99.90;;;;;;21119512;28;19974;-76
2023/09/15 02:43:21;;;;;;;;;;;14.70;99.90;;;;;;21135052;28;19919;-76
2023/09/15 02:53:22;;;;;;;;;;;14.80;99.90;;;;;;21134288;28;19916;-76
2023/09/15 03:03:26;;;;;;;;;;;14.90;99.90;;;;;;21147799;27;20300;-76
2023/09/15 03:13:27;;;;;;;;;;;15.00;99.90;;;;;;21132907;28;19936;-76
2023/09/15 03:23:28;;;;;;;;;;;15.10;99.90;;;;;;21127562;28;20015;-76
2023/09/15 03:33:30;;;;;;;;;;;15.20;99.90;;;;;;21135298;28;19958;-76
2023/09/15 03:43:32;;;;;;;;;;;15.20;99.90;;;;;;21131374;28;20293;-76
2023/09/15 03:53:33;;;;;;;;;;;15.20;99.90;;;;;;21134621;28;19959;-76
2023/09/15 04:03:34;;;;;;;;;;;15.30;99.90;;;;;;21138294;27;19915;-76
2023/09/15 04:13:35;;;;;;;;;;;15.40;99.90;;;;;;21139666;28;19920;-76
2023/09/15 04:23:35;;;;;;;;;;;15.40;99.90;;;;;;21109990;28;20426;-76
2023/09/15 04:33:40;;;;;;;;;;;15.40;99.90;;;;;;21122557;28;19916;-76
2023/09/15 04:43:40;;;;;;;;;;;15.30;99.90;;;;;;21149997;28;19948;-75
2023/09/15 04:53:41;;;;;;;;;;;15.30;99.90;;;;;;21124639;28;20290;-75
2023/09/15 05:03:44;;;;;;;;;;;15.10;99.90;;;;;;21134828;27;20015;-75
2023/09/15 05:13:44;;;;;;;;;;;15.10;99.90;;;;;;21143738;28;19927;-75
2023/09/15 05:23:47;;;;;;;;;;;15.20;99.90;;;;;;21126166;28;20397;-75
2023/09/15 05:33:48;;;;;;;;;;;15.20;99.90;;;;;;21132440;28;19922;-74
2023/09/15 05:43:49;;;;;;;;;;;15.10;99.90;;;;;;21124866;28;19923;-74
2023/09/15 05:53:50;;;;;;;;;;;15.10;99.90;;;;;;21142667;28;19923;-76
2023/09/15 06:03:50;;;;;;;;;;;15.00;99.90;;;;;;21129566;27;19969;-75
2023/09/15 06:13:51;;;;;;;;;;;14.90;99.90;;;;;;21154578;28;19965;-75
2023/09/15 06:23:52;;;;;;;;;;;15.20;99.90;;;;;;21156363;28;19912;-75
2023/09/15 06:33:52;;;;;;;;;;;15.40;99.90;;;;;;21162022;28;19920;-74
2023/09/15 06:43:53;;;;;;;;;;;15.50;99.90;;;;;;21159128;28;19922;-75
2023/09/15 06:53:54;;;;;;;;;;;15.50;99.90;;;;;;21154758;28;19971;-75
2023/09/15 07:03:54;;;;;;;;;;;15.40;99.90;;;;;;21145133;28;19916;-75
2023/09/15 07:13:55;;;;;;;;;;;15.50;99.90;;;;;;21165415;28;19919;-76
2023/09/15 07:23:55;;;;;;;;;;;15.50;99.90;;;;;;21164091;28;20281;-74
2023/09/15 07:33:56;;;;;;;;;;;15.60;99.90;;;;;;21147249;28;19916;-73
2023/09/15 07:44:00;;;;;;;;;;;15.70;99.90;;;;;;21143917;28;20375;-74
2023/09/15 07:54:01;;;;;;;;;;;15.90;99.90;;;;;;21143034;28;20439;-74
2023/09/15 08:04:02;;;;;;;;;;;16.30;99.90;;;;;;21156408;28;19920;-74
2023/09/15 08:14:03;;;;;;;;;;;16.80;99.90;;;;;;21159417;28;19919;-74
2023/09/15 08:24:04;;;;;;;;;;;17.20;99.90;;;;;;21150777;28;19966;-74
2023/09/15 08:34:05;;;;;;;;;;;17.50;99.90;;;;;;21141518;28;19922;-74
2023/09/15 08:44:09;;;;;;;;;;;17.60;99.90;;;;;;21156242;28;19919;-74
2023/09/15 08:54:10;;;;;;;;;;;17.70;99.90;;;;;;21155188;28;19916;-75
2023/09/15 09:04:11;;;;;;;;;;;17.80;99.90;;;;;;21139873;28;19920;-75
2023/09/15 09:14:12;;;;;;;;;;;18.60;99.90;;;;;;21159353;28;19956;-74
2023/09/15 09:24:14;;;;;;;;;;;19.70;99.90;;;;;;21149445;28;20006;-74
2023/09/15 09:34:17;;;;;;;;;;;20.40;99.90;;;;;;21150777;28;19915;-74
2023/09/15 09:44:19;;;;;;;;;;;21.10;99.90;;;;;;21145018;28;19958;-74
2023/09/15 09:54:22;;;;;;;;;;;21.40;99.90;;;;;;21144924;28;19915;-74
2023/09/15 10:04:23;;;;;;;;;;;21.70;99.90;;;;;;21134462;28;20002;-74
2023/09/15 10:14:25;;;;;;;;;;;22.00;99.90;;;;;;21151367;28;20388;-74
2023/09/15 10:24:31;;;;;;;;;;;22.90;99.90;;;;;;21156097;28;19915;-74
2023/09/15 10:34:32;;;;;;;;;;;24.70;99.90;;;;;;21146756;28;19973;-75
2023/09/15 10:44:33;;;;;;;;;;;26.00;99.90;;;;;;21148128;28;19912;-75
2023/09/15 10:54:38;;;;;;;;;;;25.70;99.90;;;;;;21139910;28;19970;-74
2023/09/15 11:04:40;;;;;;;;;;;25.90;99.90;;;;;;21160140;28;19963;-74
2023/09/15 11:14:40;;;;;;;;;;;26.50;99.90;;;;;;21161461;28;19946;-74
2023/09/15 11:24:41;;;;;;;;;;;25.50;99.90;;;;;;21143051;28;19931;-74
2023/09/15 11:34:42;;;;;;;;;;;25.50;99.90;;;;;;21163230;28;19961;-75
2023/09/15 11:44:43;;;;;;;;;;;26.60;99.90;;;;;;21151024;28;19912;-74
2023/09/15 11:54:45;;;;;;;;;;;26.10;99.90;;;;;;21163211;28;19920;-75
2023/09/15 12:04:46;;;;;;;;;;;27.20;99.90;;;;;;21154714;28;19916;-74
2023/09/15 12:14:47;;;;;;;;;;;26.20;99.90;;;;;;21154710;28;19929;-74
2023/09/15 12:24:47;;;;;;;;;;;26.90;99.90;;;;;;21136083;28;19912;-74
2023/09/15 12:34:48;;;;;;;;;;;26.00;99.90;;;;;;21150978;28;19924;-74
2023/09/15 12:44:49;;;;;;;;;;;27.30;99.90;;;;;;21150976;28;19915;-73
2023/09/15 12:54:49;;;;;;;;;;;26.40;99.90;;;;;;21139455;28;19923;-75
2023/09/15 13:04:50;;;;;;;;;;;26.60;99.90;;;;;;21151259;28;19946;-76
2023/09/15 13:14:51;;;;;;;;;;;29.30;99.90;;;;;;21125355;28;19923;-75
2023/09/15 13:24:52;;;;;;;;;;;28.50;99.90;;;;;;21119585;28;19911;-75
2023/09/15 13:34:53;;;;;;;;;;;27.40;99.90;;;;;;21138538;28;20344;-75
2023/09/15 13:44:53;;;;;;;;;;;28.10;99.90;;;;;;21135741;28;19922;-76
2023/09/15 13:54:55;;;;;;;;;;;28.10;99.90;;;;;;21121714;27;19952;-75
2023/09/15 14:04:56;;;;;;;;;;;27.40;99.90;;;;;;21145792;28;20041;-74
2023/09/15 14:14:56;;;;;;;;;;;26.40;99.90;;;;;;21125372;28;19923;-73
2023/09/15 14:24:58;;;;;;;;;;;28.00;99.90;;;;;;21141863;28;19915;-75
2023/09/15 14:35:00;;;;;;;;;;;28.70;99.90;;;;;;21162018;28;19916;-75
2023/09/15 14:45:01;;;;;;;;;;;28.60;99.90;;;;;;21158089;28;19919;-76
2023/09/15 14:55:03;;;;;;;;;;;28.60;99.90;;;;;;21157085;28;19916;-77
2023/09/15 15:05:04;;;;;;;;;;;28.40;99.90;;;;;;21163774;28;20275;-76
2023/09/15 15:15:05;;;;;;;;;;;27.80;99.90;;;;;;21146773;28;19920;-76
2023/09/15 15:25:06;;;;;;;;;;;28.50;99.90;;;;;;21159245;28;19971;-76
2023/09/15 15:35:07;;;;;;;;;;;27.80;99.90;;;;;;21151997;28;19920;-77
2023/09/15 15:45:08;;;;;;;;;;;28.00;99.90;;;;;;21149130;28;21901;-76
2023/09/15 15:55:08;;;;;;;;;;;27.40;99.90;;;;;;21141098;28;19922;-75
2023/09/15 16:05:09;;;;;;;;;;;26.50;99.90;;;;;;21135339;28;19916;-76
2023/09/15 16:15:10;;;;;;;;;;;25.90;99.90;;;;;;21159411;28;19969;-76
2023/09/15 16:25:11;;;;;;;;;;;25.60;99.90;;;;;;21140459;28;19916;-76
2023/09/15 16:35:12;;;;;;;;;;;25.40;99.90;;;;;;21141844;28;19927;-75
2023/09/15 16:45:13;;;;;;;;;;;25.00;99.90;;;;;;21154232;28;19912;-75
2023/09/15 16:55:15;;;;;;;;;;;24.80;99.90;;;;;;21160296;27;19931;-75
2023/09/15 17:05:15;;;;;;;;;;;24.60;99.90;;;;;;21172540;22;19930;-75
2023/09/15 17:15:16;;;;;;;;;;;24.30;99.90;;;;;;21152661;28;20317;-75
2023/09/15 17:25:17;;;;;;;;;;;24.00;99.90;;;;;;21154826;28;19915;-74
2023/09/15 17:35:18;;;;;;;;;;;22.90;99.90;;;;;;21153175;28;20406;-75
2023/09/15 17:45:21;;;;;;;;;;;22.60;99.90;;;;;;21134308;28;20038;-75
2023/09/15 17:55:21;;;;;;;;;;;22.30;99.90;;;;;;21148322;28;19916;-76
2023/09/15 18:05:22;;;;;;;;;;;21.80;99.90;;;;;;21155587;28;19922;-75
2023/09/15 18:15:23;;;;;;;;;;;21.70;99.90;;;;;;21143648;28;20014;-76
2023/09/15 18:25:23;;;;;;;;;;;21.30;99.90;;;;;;21147876;28;19911;-76
2023/09/15 18:35:24;;;;;;;;;;;20.60;99.90;;;;;;21143579;28;19923;-74
2023/09/15 18:45:25;;;;;;;;;;;20.20;99.90;;;;;;21130400;28;20049;-76
2023/09/15 18:55:26;;;;;;;;;;;20.30;99.90;;;;;;21143939;28;19942;-76
2023/09/15 19:05:27;;;;;;;;;;;20.50;99.90;;;;;;21104159;28;19920;-73
2023/09/15 19:15:27;;;;;;;;;;;20.20;99.90;;;;;;21100213;28;19920;-73
2023/09/15 19:25:28;;;;;;;;;;;19.60;99.90;;;;;;21089515;28;19912;-73
2023/09/15 19:35:29;;;;;;;;;;;19.30;99.90;;;;;;21070180;28;20382;-72
2023/09/15 19:45:30;;;;;;;;;;;19.20;99.90;;;;;;21094860;28;19913;-73
2023/09/15 19:55:31;;;;;;;;;;;19.20;99.90;;;;;;21100605;28;19916;-74
2023/09/15 20:05:32;;;;;;;;;;;18.90;99.90;;;;;;21152246;28;19938;-72
2023/09/15 20:15:33;;;;;;;;;;;18.80;99.90;;;;;;21105164;28;19939;-73
2023/09/15 20:25:34;;;;;;;;;;;18.90;99.90;;;;;;21082293;28;20259;-72
2023/09/15 20:35:34;;;;;;;;;;;18.30;99.90;;;;;;21082645;28;19938;-71
2023/09/15 20:45:35;;;;;;;;;;;18.40;99.90;;;;;;21089014;28;19912;-72
2023/09/15 20:55:36;;;;;;;;;;;18.50;99.90;;;;;;21062756;28;19923;-73
2023/09/15 21:05:37;;;;;;;;;;;18.20;99.90;;;;;;21070548;28;19916;-72
2023/09/15 21:15:37;;;;;;;;;;;18.00;99.90;;;;;;21086540;28;19920;-73
2023/09/15 21:25:41;;;;;;;;;;;17.90;99.90;;;;;;21078547;28;19916;-73
2023/09/15 21:35:43;;;;;;;;;;;17.70;99.90;;;;;;21115914;28;19970;-73
2023/09/15 21:45:43;;;;;;;;;;;17.90;99.90;;;;;;21104537;28;19942;-72
2023/09/15 21:55:44;;;;;;;;;;;17.80;99.90;;;;;;21076147;28;19948;-72
2023/09/15 22:05:46;;;;;;;;;;;17.70;99.90;;;;;;21074739;28;20217;-72
2023/09/15 22:15:47;;;;;;;;;;;17.70;99.90;;;;;;21082366;28;19943;-72
2023/09/15 22:25:49;;;;;;;;;;;17.60;99.90;;;;;;21076614;28;20251;-72
2023/09/15 22:35:50;;;;;;;;;;;17.40;99.90;;;;;;21055660;28;19924;-72
2023/09/15 22:45:52;;;;;;;;;;;17.20;99.90;;;;;;21081072;28;20392;-72
2023/09/15 22:55:53;;;;;;;;;;;17.00;99.90;;;;;;21085965;28;19962;-72
2023/09/15 23:05:54;;;;;;;;;;;17.20;99.90;;;;;;21100060;28;19916;-73
2023/09/15 23:15:57;;;;;;;;;;;17.30;99.90;;;;;;21100025;28;19916;-73
2023/09/15 23:25:58;;;;;;;;;;;17.20;99.90;;;;;;21086842;28;19959;-73
2023/09/15 23:36:04;;;;;;;;;;;17.00;99.90;;;;;;21086350;28;19916;-72
2023/09/15 23:46:05;;;;;;;;;;;17.00;99.90;;;;;;21097202;28;19998;-72
2023/09/15 23:56:06;;;;;;;;;;;17.00;99.90;;;;;;21132778;28;20394;-73
